Madison, SD

7:44 PM CST on February 23, 2017 (GMT -0600)
Madison Municipal

Weather History for KMDS - December, 2013

Change the Weather History Date:

Sunday, December 29, 2013

  Actual Average Record
Temperature  
Mean Temperature -6 °F -  
Max Temperature 0 °F 23 °F 39 °F (2011)
Min Temperature -11 °F 5 °F -11 °F (2013)
Degree Days  
Heating Degree Days 70    
Moisture  
Dew Point -14 °F    
Average Humidity 66    
Maximum Humidity 92    
Minimum Humidity 50    
Precipitation  
Precipitation 0.00 in - - ()
Sea Level Pressure  
Sea Level Pressure 30.27 in    
Wind  
Wind Speed 18 mph (NW)    
Max Wind Speed 33 mph    
Max Gust Speed 41 mph    
Visibility 10 miles    
Events Rain    
Averages and records for this station are not official NWS values.
T = Trace of Precipitation, MM = Missing Value Source: NWS Daily Summary

Daily Weather History Graph

Daily Weather History Graph

Search for Another Location

Airport or City:

Trip Planner

Search our weather history database for the weather conditions in past years. The results will help you decide how hot, cold, wet, or windy it might be!

Date:

Astronomy

Dec. 29, 2013 Rise Set
Actual Time 8:02 AM CST 4:58 PM CST
Civil Twilight 7:29 AM CST 5:31 PM CST
Nautical Twilight 6:53 AM CST 6:07 PM CST
Astronomical Twilight 6:18 AM CST 6:43 PM CST
Moon 4:44 AM CST (12/29) 2:40 PM CST (12/29)
Length of Visible Light 10h 01m
Length of Day
8h 55m
Waning Crescent, 11% of the Moon is Illuminated
Dec 29
Waning Crescent
Jan 1
New
Jan 7
First Quarter
Jan 15
Full
Jan 23
Last Quarter

Hourly Weather History & Observations

Time (CST) Temp. Windchill Dew Point Humidity Pressure Visibility Wind Dir Wind Speed Gust Speed Precip Events Conditions
12:10 AM -0.4 °F -26.0 °F -2.2 °F 92% 30.22 in 10.0 mi NNW 28.8 mph 36.8 mph N/A Rain Light Freezing Rain
12:30 AM -0.4 °F -27.5 °F -4.0 °F 85% 30.23 in 10.0 mi NNW 33.4 mph 41.4 mph N/A Rain Light Freezing Rain
12:50 AM -2.2 °F -28.4 °F -5.8 °F 85% 30.24 in 10.0 mi NNW 28.8 mph 39.1 mph N/A   Overcast
1:10 AM -2.2 °F -27.1 °F -7.6 °F 78% 30.25 in 10.0 mi NNW 25.3 mph 34.5 mph N/A   Overcast
1:30 AM -4.0 °F -29.6 °F -9.4 °F 78% 30.26 in 10.0 mi NNW 25.3 mph 34.5 mph N/A   Scattered Clouds
1:50 AM -4.0 °F -29.1 °F -11.2 °F 71% 30.26 in 10.0 mi NNW 24.2 mph 28.8 mph N/A   Clear
2:10 AM -5.8 °F -32.9 °F -13.0 °F 71% 30.27 in 10.0 mi NNW 27.6 mph 35.7 mph N/A   Clear
2:30 AM -5.8 °F -31.0 °F -13.0 °F 71% 30.28 in 10.0 mi NNW 23.0 mph 32.2 mph N/A   Clear
2:50 AM -7.6 °F -31.1 °F -14.8 °F 71% 30.29 in 10.0 mi NNW 18.4 mph 29.9 mph N/A   Clear
3:10 AM -7.6 °F -30.5 °F -14.8 °F 71% 30.30 in 10.0 mi NNW 17.3 mph 21.9 mph N/A   Clear
3:30 AM -7.6 °F -31.7 °F -14.8 °F 71% 30.31 in 10.0 mi NNW 19.6 mph 26.5 mph N/A   Clear
3:50 AM -7.6 °F -31.7 °F -16.6 °F 65% 30.31 in 10.0 mi NNW 19.6 mph 29.9 mph N/A   Clear
4:10 AM -7.6 °F -32.3 °F -16.6 °F 65% 30.31 in 10.0 mi NNW 20.7 mph 27.6 mph N/A   Clear
4:30 AM -9.4 °F -35.8 °F -16.6 °F 71% 30.31 in 10.0 mi NNW 23.0 mph 27.6 mph N/A   Clear
4:50 AM -9.4 °F -34.7 °F -18.4 °F 65% 30.31 in 10.0 mi NNW 20.7 mph 25.3 mph N/A   Clear
5:10 AM -9.4 °F -32.1 °F -18.4 °F 65% 30.32 in 10.0 mi NNW 16.1 mph 23.0 mph N/A   Clear
5:30 AM -9.4 °F -32.8 °F -18.4 °F 65% 30.33 in 10.0 mi NNW 17.3 mph 24.2 mph N/A   Clear
5:50 AM -9.4 °F -32.8 °F -18.4 °F 65% 30.32 in 10.0 mi NNW 17.3 mph 25.3 mph N/A   Clear
6:10 AM -9.4 °F -32.1 °F -18.4 °F 65% 30.32 in 10.0 mi NNW 16.1 mph 19.6 mph N/A   Clear
6:30 AM -9.4 °F -32.8 °F -18.4 °F 65% 30.34 in 10.0 mi NNW 17.3 mph 21.9 mph N/A   Clear
6:50 AM -9.4 °F -32.8 °F -18.4 °F 65% 30.34 in 10.0 mi NNW 17.3 mph 26.5 mph N/A   Clear
7:10 AM -9.4 °F -32.8 °F -18.4 °F 65% 30.35 in 10.0 mi NNW 17.3 mph 24.2 mph N/A   Clear
7:30 AM -9.4 °F -32.1 °F -18.4 °F 65% 30.35 in 10.0 mi NNW 16.1 mph - N/A   Clear
7:50 AM -11.2 °F -33.7 °F -18.4 °F 70% 30.36 in 10.0 mi NNW 15.0 mph - N/A   Clear
8:10 AM -9.4 °F -32.1 °F -18.4 °F 65% 30.36 in 10.0 mi NNW 16.1 mph - N/A   Clear
8:30 AM -9.4 °F -30.6 °F -18.4 °F 65% 30.36 in 10.0 mi NNW 13.8 mph - N/A   Clear
8:50 AM -9.4 °F -31.4 °F -18.4 °F 65% 30.36 in 10.0 mi NNW 15.0 mph - N/A   Clear
9:10 AM -9.4 °F -32.8 °F -18.4 °F 65% 30.37 in 10.0 mi NNW 17.3 mph 21.9 mph N/A   Clear
9:30 AM -7.6 °F -29.8 °F -18.4 °F 59% 30.36 in 10.0 mi NNW 16.1 mph 21.9 mph N/A   Clear
9:50 AM -7.6 °F -29.8 °F -18.4 °F 59% 30.38 in 10.0 mi NNW 16.1 mph 20.7 mph N/A   Clear
10:10 AM -7.6 °F -27.5 °F -16.6 °F 65% 30.38 in 10.0 mi NNW 12.7 mph - N/A   Scattered Clouds
10:30 AM -5.8 °F -25.2 °F -16.6 °F 60% 30.38 in 10.0 mi NNW 12.7 mph 19.6 mph N/A   Partly Cloudy
10:50 AM -5.8 °F -25.2 °F -16.6 °F 60% 30.37 in 10.0 mi NNW 12.7 mph 18.4 mph N/A   Clear
11:10 AM -4.0 °F -24.5 °F -16.6 °F 55% 30.37 in 10.0 mi NNW 15.0 mph 18.4 mph N/A   Clear
11:30 AM -4.0 °F -22.1 °F -16.6 °F 55% 30.36 in 10.0 mi NNW 11.5 mph - N/A   Clear
11:50 AM -4.0 °F -22.1 °F -16.6 °F 55% 30.35 in 10.0 mi NNW 11.5 mph - N/A   Clear
12:10 PM -4.0 °F -21.2 °F -16.6 °F 55% 30.34 in 10.0 mi NNW 10.4 mph - N/A   Clear
12:30 PM -4.0 °F -24.5 °F -16.6 °F 55% 30.33 in 10.0 mi NW 15.0 mph - N/A   Clear
12:50 PM -2.2 °F -19.9 °F -14.8 °F 55% 30.33 in 10.0 mi NNW 11.5 mph - N/A   Clear
1:10 PM -2.2 °F -19.9 °F -14.8 °F 55% 30.32 in 10.0 mi NW 11.5 mph 17.3 mph N/A   Clear
1:30 PM -2.2 °F -19.9 °F -13.0 °F 60% 30.31 in 10.0 mi NW 11.5 mph - N/A   Clear
1:50 PM -2.2 °F -18.9 °F -13.0 °F 60% 30.30 in 10.0 mi NW 10.4 mph - N/A   Clear
2:10 PM -2.2 °F -19.9 °F -13.0 °F 60% 30.29 in 10.0 mi NW 11.5 mph - N/A   Clear
2:30 PM -2.2 °F -18.9 °F -13.0 °F 60% 30.28 in 10.0 mi NW 10.4 mph - N/A   Clear
2:50 PM -2.2 °F -18.9 °F -13.0 °F 60% 30.27 in 10.0 mi NW 10.4 mph - N/A   Clear
3:10 PM -2.2 °F -18.9 °F -13.0 °F 60% 30.26 in 10.0 mi NW 10.4 mph - N/A   Clear
3:30 PM -2.2 °F -18.9 °F -13.0 °F 60% 30.26 in 10.0 mi NW 10.4 mph - N/A   Clear
3:50 PM -2.2 °F -16.8 °F -16.6 °F 50% 30.26 in 10.0 mi NW 8.1 mph - N/A   Clear
4:10 PM -2.2 °F -15.6 °F -13.0 °F 60% 30.25 in 10.0 mi WNW 6.9 mph - N/A   Clear
4:30 PM -4.0 °F -19.0 °F -14.8 °F 60% 30.24 in 10.0 mi WNW 8.1 mph - N/A   Clear
4:50 PM -4.0 °F -19.0 °F -14.8 °F 60% 30.24 in 10.0 mi WNW 8.1 mph - N/A   Clear
5:10 PM -5.8 °F -18.4 °F -13.0 °F 71% 30.23 in 10.0 mi WNW 5.8 mph - N/A   Scattered Clouds
5:30 PM -7.6 °F -16.5 °F -13.0 °F 77% 30.22 in 10.0 mi West 3.5 mph - N/A   Overcast
5:50 PM -5.8 °F - -13.0 °F 71% 30.22 in 10.0 mi Calm Calm - N/A   Overcast
6:10 PM -5.8 °F -14.5 °F -13.0 °F 71% 30.22 in 10.0 mi West 3.5 mph - N/A   Overcast
6:30 PM -4.0 °F -14.6 °F -13.0 °F 65% 30.22 in 10.0 mi SW 4.6 mph - N/A   Overcast
6:50 PM -4.0 °F -12.4 °F - N/A% 30.20 in 10.0 mi SSW 3.5 mph - N/A   Overcast
7:10 PM -4.0 °F -12.4 °F -11.2 °F 71% 30.21 in 10.0 mi SSW 3.5 mph - N/A   Overcast
7:30 PM -4.0 °F -12.4 °F -11.2 °F 71% 30.20 in 10.0 mi South 3.5 mph - N/A   Overcast
7:50 PM -4.0 °F -16.3 °F -11.2 °F 71% 30.21 in 10.0 mi SW 5.8 mph - N/A   Overcast
8:10 PM -4.0 °F -16.3 °F -11.2 °F 71% 30.20 in 10.0 mi South 5.8 mph - N/A   Overcast
8:30 PM -2.2 °F -14.2 °F -11.2 °F 66% 30.20 in 10.0 mi South 5.8 mph - N/A   Overcast
8:50 PM -2.2 °F -10.4 °F -9.4 °F 71% 30.18 in 10.0 mi SSE 3.5 mph - N/A   Overcast
9:10 PM -2.2 °F -12.5 °F -9.4 °F 71% 30.18 in 10.0 mi SSE 4.6 mph - N/A   Overcast
9:30 PM -2.2 °F -14.2 °F -9.4 °F 71% 30.17 in 10.0 mi SSE 5.8 mph - N/A   Overcast
9:50 PM -2.2 °F -16.8 °F -9.4 °F 71% 30.15 in 10.0 mi SSE 8.1 mph - N/A   Mostly Cloudy
10:10 PM -2.2 °F -15.6 °F -9.4 °F 71% 30.15 in 10.0 mi South 6.9 mph - N/A   Partly Cloudy
10:30 PM -2.2 °F -15.6 °F -9.4 °F 71% 30.15 in 10.0 mi South 6.9 mph - N/A   Clear
10:50 PM -2.2 °F -15.6 °F -9.4 °F 71% 30.15 in 10.0 mi SSE 6.9 mph - N/A   Clear
11:10 PM -2.2 °F -15.6 °F -9.4 °F 71% 30.14 in 10.0 mi SSE 6.9 mph - N/A   Partly Cloudy
11:30 PM -2.2 °F -16.8 °F -9.4 °F 71% 30.14 in 10.0 mi SSE 8.1 mph - N/A   Scattered Clouds
11:50 PM -2.2 °F -16.8 °F -9.4 °F 71% 30.13 in 10.0 mi SSE 8.1 mph - N/A   Mostly Cloudy